sensor_id;sensor_type;location;lat;lon;timestamp;temperature;humidity
52381;DHT22;38310;52.796;6.942;2022-09-03T00:00:16;16.10;89.90
52381;DHT22;38310;52.796;6.942;2022-09-03T00:02:51;16.10;90.00
52381;DHT22;38310;52.796;6.942;2022-09-03T00:05:28;16.00;89.60
52381;DHT22;38310;52.796;6.942;2022-09-03T00:10:58;16.00;90.00
52381;DHT22;38310;52.796;6.942;2022-09-03T00:13:35;16.00;89.90
52381;DHT22;38310;52.796;6.942;2022-09-03T00:16:05;16.00;90.00
52381;DHT22;38310;52.796;6.942;2022-09-03T00:18:42;15.90;89.90
52381;DHT22;38310;52.796;6.942;2022-09-03T00:21:33;15.90;89.90
52381;DHT22;38310;52.796;6.942;2022-09-03T00:24:02;15.90;90.10
52381;DHT22;38310;52.796;6.942;2022-09-03T00:26:33;15.90;90.20
52381;DHT22;38310;52.796;6.942;2022-09-03T00:29:08;15.90;90.30
52381;DHT22;38310;52.796;6.942;2022-09-03T00:31:39;15.80;90.40
52381;DHT22;38310;52.796;6.942;2022-09-03T00:34:33;15.80;90.40
52381;DHT22;38310;52.796;6.942;2022-09-03T00:37:00;15.70;90.70
52381;DHT22;38310;52.796;6.942;2022-09-03T01:18:18;15.50;91.70
52381;DHT22;38310;52.796;6.942;2022-09-03T01:21:04;15.50;92.00
52381;DHT22;38310;52.796;6.942;2022-09-03T01:29:02;15.50;91.70
52381;DHT22;38310;52.796;6.942;2022-09-03T01:32:11;15.50;91.90
52381;DHT22;38310;52.796;6.942;2022-09-03T01:46:25;15.60;92.00
52381;DHT22;38310;52.796;6.942;2022-09-03T01:49:05;15.60;92.00
52381;DHT22;38310;52.796;6.942;2022-09-03T01:51:36;15.60;92.30
52381;DHT22;38310;52.796;6.942;2022-09-03T02:00:03;15.70;92.20
52381;DHT22;38310;52.796;6.942;2022-09-03T02:02:29;15.70;92.10
52381;DHT22;38310;52.796;6.942;2022-09-03T02:07:42;15.70;92.30
52381;DHT22;38310;52.796;6.942;2022-09-03T02:10:18;15.70;92.30
52381;DHT22;38310;52.796;6.942;2022-09-03T02:12:48;15.70;92.30
52381;DHT22;38310;52.796;6.942;2022-09-03T02:15:18;15.70;92.30
52381;DHT22;38310;52.796;6.942;2022-09-03T02:17:46;15.60;92.20
52381;DHT22;38310;52.796;6.942;2022-09-03T02:20:23;15.70;92.30
52381;DHT22;38310;52.796;6.942;2022-09-03T02:22:51;15.60;92.20
52381;DHT22;38310;52.796;6.942;2022-09-03T02:25:20;15.70;92.30
52381;DHT22;38310;52.796;6.942;2022-09-03T02:27:48;15.60;92.30
52381;DHT22;38310;52.796;6.942;2022-09-03T02:30:15;15.60;92.40
52381;DHT22;38310;52.796;6.942;2022-09-03T02:32:43;15.60;92.50
52381;DHT22;38310;52.796;6.942;2022-09-03T02:35:09;15.60;92.60
52381;DHT22;38310;52.796;6.942;2022-09-03T02:37:34;15.60;92.60
52381;DHT22;38310;52.796;6.942;2022-09-03T02:40:01;15.60;92.70
52381;DHT22;38310;52.796;6.942;2022-09-03T02:42:32;15.50;92.70
52381;DHT22;38310;52.796;6.942;2022-09-03T02:45:23;15.50;92.80
52381;DHT22;38310;52.796;6.942;2022-09-03T02:47:55;15.50;92.80
52381;DHT22;38310;52.796;6.942;2022-09-03T02:50:22;15.50;92.90
52381;DHT22;38310;52.796;6.942;2022-09-03T02:52:48;15.50;93.20
52381;DHT22;38310;52.796;6.942;2022-09-03T02:55:15;15.50;93.10
52381;DHT22;38310;52.796;6.942;2022-09-03T02:57:41;15.50;93.00
52381;DHT22;38310;52.796;6.942;2022-09-03T03:00:07;15.50;93.00
52381;DHT22;38310;52.796;6.942;2022-09-03T03:02:33;15.50;93.00
52381;DHT22;38310;52.796;6.942;2022-09-03T03:04:59;15.50;93.20
52381;DHT22;38310;52.796;6.942;2022-09-03T03:07:28;15.40;93.20
52381;DHT22;38310;52.796;6.942;2022-09-03T03:09:56;15.40;93.30
52381;DHT22;38310;52.796;6.942;2022-09-03T03:12:22;15.40;93.30
52381;DHT22;38310;52.796;6.942;2022-09-03T03:14:47;15.40;93.50
52381;DHT22;38310;52.796;6.942;2022-09-03T03:17:13;15.40;93.60
52381;DHT22;38310;52.796;6.942;2022-09-03T03:19:39;15.40;93.60
52381;DHT22;38310;52.796;6.942;2022-09-03T03:22:05;15.40;93.70
52381;DHT22;38310;52.796;6.942;2022-09-03T03:24:30;15.40;93.70
52381;DHT22;38310;52.796;6.942;2022-09-03T03:26:56;15.30;94.00
52381;DHT22;38310;52.796;6.942;2022-09-03T03:29:22;15.30;93.80
52381;DHT22;38310;52.796;6.942;2022-09-03T03:31:50;15.30;93.90
52381;DHT22;38310;52.796;6.942;2022-09-03T03:34:16;15.30;93.90
52381;DHT22;38310;52.796;6.942;2022-09-03T03:36:42;15.30;94.10
52381;DHT22;38310;52.796;6.942;2022-09-03T03:39:07;15.30;94.20
52381;DHT22;38310;52.796;6.942;2022-09-03T03:41:34;15.30;94.20
52381;DHT22;38310;52.796;6.942;2022-09-03T03:44:02;15.20;94.20
52381;DHT22;38310;52.796;6.942;2022-09-03T03:46:31;15.20;94.30
52381;DHT22;38310;52.796;6.942;2022-09-03T03:48:57;15.20;94.30
52381;DHT22;38310;52.796;6.942;2022-09-03T03:51:24;15.20;94.50
52381;DHT22;38310;52.796;6.942;2022-09-03T03:53:56;15.20;94.50
52381;DHT22;38310;52.796;6.942;2022-09-03T03:56:23;15.20;94.70
52381;DHT22;38310;52.796;6.942;2022-09-03T03:58:49;15.10;94.80
52381;DHT22;38310;52.796;6.942;2022-09-03T04:01:18;15.20;94.90
52381;DHT22;38310;52.796;6.942;2022-09-03T04:03:44;15.00;95.20
52381;DHT22;38310;52.796;6.942;2022-09-03T04:06:12;15.00;95.10
52381;DHT22;38310;52.796;6.942;2022-09-03T04:08:39;15.00;95.20
52381;DHT22;38310;52.796;6.942;2022-09-03T04:11:08;15.00;95.40
52381;DHT22;38310;52.796;6.942;2022-09-03T04:13:40;14.90;95.50
52381;DHT22;38310;52.796;6.942;2022-09-03T04:16:08;14.90;95.60
52381;DHT22;38310;52.796;6.942;2022-09-03T04:18:35;14.80;95.70
52381;DHT22;38310;52.796;6.942;2022-09-03T04:21:06;14.80;95.90
52381;DHT22;38310;52.796;6.942;2022-09-03T04:23:34;14.80;96.00
52381;DHT22;38310;52.796;6.942;2022-09-03T04:25:59;14.80;96.10
52381;DHT22;38310;52.796;6.942;2022-09-03T04:28:26;14.70;96.30
52381;DHT22;38310;52.796;6.942;2022-09-03T04:30:52;14.70;96.40
52381;DHT22;38310;52.796;6.942;2022-09-03T04:33:18;14.60;96.60
52381;DHT22;38310;52.796;6.942;2022-09-03T04:35:44;14.60;96.80
52381;DHT22;38310;52.796;6.942;2022-09-03T04:38:10;14.50;96.90
52381;DHT22;38310;52.796;6.942;2022-09-03T04:40:35;14.40;97.20
52381;DHT22;38310;52.796;6.942;2022-09-03T04:43:01;14.50;97.50
52381;DHT22;38310;52.796;6.942;2022-09-03T04:45:27;14.40;97.60
52381;DHT22;38310;52.796;6.942;2022-09-03T04:48:01;14.50;97.80
52381;DHT22;38310;52.796;6.942;2022-09-03T04:50:28;14.40;98.10
52381;DHT22;38310;52.796;6.942;2022-09-03T04:52:58;14.30;98.20
52381;DHT22;38310;52.796;6.942;2022-09-03T04:55:25;14.30;98.50
52381;DHT22;38310;52.796;6.942;2022-09-03T04:57:51;14.20;98.80
52381;DHT22;38310;52.796;6.942;2022-09-03T05:00:17;14.30;99.00
52381;DHT22;38310;52.796;6.942;2022-09-03T05:02:44;14.20;99.40
52381;DHT22;38310;52.796;6.942;2022-09-03T05:05:14;14.20;99.70
52381;DHT22;38310;52.796;6.942;2022-09-03T05:07:40;14.10;99.90
52381;DHT22;38310;52.796;6.942;2022-09-03T05:10:07;14.20;99.90
52381;DHT22;38310;52.796;6.942;2022-09-03T05:12:34;14.10;99.90
52381;DHT22;38310;52.796;6.942;2022-09-03T05:14:59;14.50;99.90
52381;DHT22;38310;52.796;6.942;2022-09-03T05:17:28;14.20;99.90
52381;DHT22;38310;52.796;6.942;2022-09-03T05:19:54;14.20;99.90
52381;DHT22;38310;52.796;6.942;2022-09-03T05:22:20;14.20;99.90
52381;DHT22;38310;52.796;6.942;2022-09-03T05:24:46;14.20;99.90
52381;DHT22;38310;52.796;6.942;2022-09-03T05:27:14;14.20;99.90
52381;DHT22;38310;52.796;6.942;2022-09-03T05:29:42;14.20;99.90
52381;DHT22;38310;52.796;6.942;2022-09-03T05:32:08;14.20;99.90
52381;DHT22;38310;52.796;6.942;2022-09-03T05:34:34;14.20;99.90
52381;DHT22;38310;52.796;6.942;2022-09-03T05:37:00;14.20;99.90
52381;DHT22;38310;52.796;6.942;2022-09-03T05:39:26;14.20;99.90
52381;DHT22;38310;52.796;6.942;2022-09-03T05:41:51;14.40;99.90
52381;DHT22;38310;52.796;6.942;2022-09-03T05:44:18;14.30;99.90
52381;DHT22;38310;52.796;6.942;2022-09-03T05:46:45;14.30;99.90
52381;DHT22;38310;52.796;6.942;2022-09-03T05:49:11;14.30;99.90
52381;DHT22;38310;52.796;6.942;2022-09-03T05:51:37;14.30;99.90
52381;DHT22;38310;52.796;6.942;2022-09-03T05:54:07;14.40;99.90
52381;DHT22;38310;52.796;6.942;2022-09-03T05:56:33;14.40;99.90
52381;DHT22;38310;52.796;6.942;2022-09-03T05:59:03;14.70;99.90
52381;DHT22;38310;52.796;6.942;2022-09-03T06:01:34;14.50;99.90
52381;DHT22;38310;52.796;6.942;2022-09-03T06:04:05;14.50;99.90
52381;DHT22;38310;52.796;6.942;2022-09-03T06:06:33;14.50;99.90
52381;DHT22;38310;52.796;6.942;2022-09-03T06:09:01;14.60;99.90
52381;DHT22;38310;52.796;6.942;2022-09-03T06:11:29;14.60;99.90
52381;DHT22;38310;52.796;6.942;2022-09-03T06:13:56;14.60;99.90
52381;DHT22;38310;52.796;6.942;2022-09-03T06:16:22;14.70;99.90
52381;DHT22;38310;52.796;6.942;2022-09-03T06:18:48;14.70;99.90
52381;DHT22;38310;52.796;6.942;2022-09-03T06:21:14;14.70;99.90
52381;DHT22;38310;52.796;6.942;2022-09-03T06:23:40;14.80;99.90
52381;DHT22;38310;52.796;6.942;2022-09-03T06:26:09;14.80;99.90
52381;DHT22;38310;52.796;6.942;2022-09-03T06:28:37;14.90;99.90
52381;DHT22;38310;52.796;6.942;2022-09-03T06:31:05;14.90;99.90
52381;DHT22;38310;52.796;6.942;2022-09-03T06:33:35;14.90;99.90
52381;DHT22;38310;52.796;6.942;2022-09-03T06:36:02;15.00;99.90
52381;DHT22;38310;52.796;6.942;2022-09-03T06:38:31;15.10;99.90
52381;DHT22;38310;52.796;6.942;2022-09-03T06:41:01;15.10;99.90
52381;DHT22;38310;52.796;6.942;2022-09-03T06:43:29;15.10;99.90
52381;DHT22;38310;52.796;6.942;2022-09-03T06:45:57;15.20;99.90
52381;DHT22;38310;52.796;6.942;2022-09-03T06:48:23;15.30;99.90
52381;DHT22;38310;52.796;6.942;2022-09-03T06:51:09;15.40;99.90
52381;DHT22;38310;52.796;6.942;2022-09-03T06:53:41;15.40;99.90
52381;DHT22;38310;52.796;6.942;2022-09-03T06:56:10;15.50;99.90
52381;DHT22;38310;52.796;6.942;2022-09-03T06:58:44;15.60;99.90
52381;DHT22;38310;52.796;6.942;2022-09-03T07:01:16;15.60;99.90
52381;DHT22;38310;52.796;6.942;2022-09-03T07:03:44;15.70;99.90
52381;DHT22;38310;52.796;6.942;2022-09-03T07:06:15;15.80;99.90
52381;DHT22;38310;52.796;6.942;2022-09-03T07:08:42;15.90;99.90
52381;DHT22;38310;52.796;6.942;2022-09-03T07:11:10;16.00;99.90
52381;DHT22;38310;52.796;6.942;2022-09-03T07:13:38;16.00;99.90
52381;DHT22;38310;52.796;6.942;2022-09-03T07:16:11;16.10;99.90
52381;DHT22;38310;52.796;6.942;2022-09-03T07:18:37;16.20;99.90
52381;DHT22;38310;52.796;6.942;2022-09-03T07:21:06;16.30;99.90
52381;DHT22;38310;52.796;6.942;2022-09-03T07:23:33;16.40;99.90
52381;DHT22;38310;52.796;6.942;2022-09-03T07:26:04;16.50;99.90
52381;DHT22;38310;52.796;6.942;2022-09-03T07:28:30;16.60;99.90
52381;DHT22;38310;52.796;6.942;2022-09-03T07:33:31;16.90;99.90
52381;DHT22;38310;52.796;6.942;2022-09-03T07:36:12;17.00;99.90
52381;DHT22;38310;52.796;6.942;2022-09-03T07:38:39;17.10;99.90
52381;DHT22;38310;52.796;6.942;2022-09-03T07:41:07;17.20;99.90
52381;DHT22;38310;52.796;6.942;2022-09-03T07:43:44;17.30;99.90
52381;DHT22;38310;52.796;6.942;2022-09-03T07:46:21;17.40;99.90
52381;DHT22;38310;52.796;6.942;2022-09-03T07:48:51;17.50;99.90
52381;DHT22;38310;52.796;6.942;2022-09-03T07:51:18;17.60;99.90
52381;DHT22;38310;52.796;6.942;2022-09-03T07:53:46;17.70;99.90
52381;DHT22;38310;52.796;6.942;2022-09-03T07:56:13;17.80;99.90
52381;DHT22;38310;52.796;6.942;2022-09-03T07:58:39;17.90;99.90
52381;DHT22;38310;52.796;6.942;2022-09-03T08:01:12;18.00;99.90
52381;DHT22;38310;52.796;6.942;2022-09-03T08:03:43;18.10;99.70
52381;DHT22;38310;52.796;6.942;2022-09-03T08:06:10;18.20;99.20
52381;DHT22;38310;52.796;6.942;2022-09-03T08:08:36;18.30;99.30
52381;DHT22;38310;52.796;6.942;2022-09-03T08:11:11;18.50;98.80
52381;DHT22;38310;52.796;6.942;2022-09-03T08:13:39;18.50;98.50
52381;DHT22;38310;52.796;6.942;2022-09-03T08:16:06;18.60;98.30
52381;DHT22;38310;52.796;6.942;2022-09-03T08:18:36;18.70;98.10
52381;DHT22;38310;52.796;6.942;2022-09-03T08:21:08;18.80;98.20
52381;DHT22;38310;52.796;6.942;2022-09-03T08:23:41;18.90;98.10
52381;DHT22;38310;52.796;6.942;2022-09-03T08:26:07;19.10;97.60
52381;DHT22;38310;52.796;6.942;2022-09-03T08:28:34;19.20;97.40
52381;DHT22;38310;52.796;6.942;2022-09-03T08:31:08;19.20;97.60
52381;DHT22;38310;52.796;6.942;2022-09-03T08:33:36;19.40;97.60
52381;DHT22;38310;52.796;6.942;2022-09-03T08:36:11;19.60;97.10
52381;DHT22;38310;52.796;6.942;2022-09-03T08:38:38;19.70;96.90
52381;DHT22;38310;52.796;6.942;2022-09-03T08:46:25;20.20;96.30
52381;DHT22;38310;52.796;6.942;2022-09-03T08:48:56;20.30;95.90
52381;DHT22;38310;52.796;6.942;2022-09-03T08:51:24;20.40;96.00
52381;DHT22;38310;52.796;6.942;2022-09-03T08:53:53;20.60;95.80
52381;DHT22;38310;52.796;6.942;2022-09-03T08:56:26;20.80;95.50
52381;DHT22;38310;52.796;6.942;2022-09-03T08:58:56;20.90;94.90
52381;DHT22;38310;52.796;6.942;2022-09-03T09:01:31;21.00;94.50
52381;DHT22;38310;52.796;6.942;2022-09-03T09:04:09;21.10;93.90
52381;DHT22;38310;52.796;6.942;2022-09-03T09:07:05;21.30;94.00
52381;DHT22;38310;52.796;6.942;2022-09-03T09:09:49;21.50;93.80
52381;DHT22;38310;52.796;6.942;2022-09-03T09:12:20;21.70;93.80
52381;DHT22;38310;52.796;6.942;2022-09-03T09:21:14;22.20;92.30
52381;DHT22;38310;52.796;6.942;2022-09-03T09:23:45;22.30;92.50
52381;DHT22;38310;52.796;6.942;2022-09-03T09:26:14;22.50;92.60
52381;DHT22;38310;52.796;6.942;2022-09-03T09:28:44;22.80;92.20
52381;DHT22;38310;52.796;6.942;2022-09-03T09:31:13;23.10;92.40
52381;DHT22;38310;52.796;6.942;2022-09-03T09:44:25;23.50;89.50
52381;DHT22;38310;52.796;6.942;2022-09-03T09:47:04;23.80;90.80
52381;DHT22;38310;52.796;6.942;2022-09-03T09:49:37;23.90;88.90
52381;DHT22;38310;52.796;6.942;2022-09-03T09:52:12;24.10;88.50
52381;DHT22;38310;52.796;6.942;2022-09-03T09:54:39;24.30;87.90
52381;DHT22;38310;52.796;6.942;2022-09-03T09:57:13;24.50;88.70
52381;DHT22;38310;52.796;6.942;2022-09-03T09:59:42;24.70;88.10
52381;DHT22;38310;52.796;6.942;2022-09-03T10:02:24;24.70;86.40
52381;DHT22;38310;52.796;6.942;2022-09-03T10:04:52;25.00;85.20
52381;DHT22;38310;52.796;6.942;2022-09-03T10:07:25;25.00;85.50
52381;DHT22;38310;52.796;6.942;2022-09-03T10:10:06;25.10;84.20
52381;DHT22;38310;52.796;6.942;2022-09-03T10:12:53;25.50;82.70
52381;DHT22;38310;52.796;6.942;2022-09-03T10:26:28;26.00;79.70
52381;DHT22;38310;52.796;6.942;2022-09-03T10:29:01;26.30;81.30
52381;DHT22;38310;52.796;6.942;2022-09-03T10:34:59;26.50;80.10
52381;DHT22;38310;52.796;6.942;2022-09-03T11:04:52;27.90;74.00
52381;DHT22;38310;52.796;6.942;2022-09-03T11:07:23;27.60;73.10
52381;DHT22;38310;52.796;6.942;2022-09-03T11:10:10;27.90;73.20
52381;DHT22;38310;52.796;6.942;2022-09-03T11:18:12;27.50;71.00
52381;DHT22;38310;52.796;6.942;2022-09-03T11:20:39;27.90;71.10
52381;DHT22;38310;52.796;6.942;2022-09-03T11:23:06;27.30;70.40
52381;DHT22;38310;52.796;6.942;2022-09-03T11:25:36;27.80;71.00
52381;DHT22;38310;52.796;6.942;2022-09-03T11:33:22;28.50;69.60
52381;DHT22;38310;52.796;6.942;2022-09-03T11:35:57;28.50;68.00
52381;DHT22;38310;52.796;6.942;2022-09-03T11:38:30;28.80;67.80
52381;DHT22;38310;52.796;6.942;2022-09-03T11:46:09;29.20;68.30
52381;DHT22;38310;52.796;6.942;2022-09-03T11:48:44;29.20;67.30
52381;DHT22;38310;52.796;6.942;2022-09-03T11:51:30;29.30;68.40
52381;DHT22;38310;52.796;6.942;2022-09-03T11:54:06;29.50;66.10
52381;DHT22;38310;52.796;6.942;2022-09-03T11:56:37;29.60;66.70
52381;DHT22;38310;52.796;6.942;2022-09-03T11:59:16;29.50;67.40
52381;DHT22;38310;52.796;6.942;2022-09-03T12:01:49;29.70;66.70
52381;DHT22;38310;52.796;6.942;2022-09-03T12:04:20;29.60;66.70
52381;DHT22;38310;52.796;6.942;2022-09-03T12:10:04;29.10;65.90
52381;DHT22;38310;52.796;6.942;2022-09-03T12:12:44;29.90;65.00
52381;DHT22;38310;52.796;6.942;2022-09-03T12:15:42;30.10;65.40
52381;DHT22;38310;52.796;6.942;2022-09-03T12:18:18;30.60;64.60
52381;DHT22;38310;52.796;6.942;2022-09-03T12:23:30;30.10;63.70
52381;DHT22;38310;52.796;6.942;2022-09-03T12:26:08;30.30;64.70
52381;DHT22;38310;52.796;6.942;2022-09-03T12:28:38;30.90;65.10
52381;DHT22;38310;52.796;6.942;2022-09-03T12:31:16;30.50;63.70
52381;DHT22;38310;52.796;6.942;2022-09-03T12:36:20;30.30;63.30
52381;DHT22;38310;52.796;6.942;2022-09-03T12:38:47;31.10;63.70
52381;DHT22;38310;52.796;6.942;2022-09-03T12:47:10;31.00;63.00
52381;DHT22;38310;52.796;6.942;2022-09-03T12:49:45;30.80;63.00
52381;DHT22;38310;52.796;6.942;2022-09-03T12:52:15;31.20;62.00
52381;DHT22;38310;52.796;6.942;2022-09-03T12:54:52;30.90;63.40
52381;DHT22;38310;52.796;6.942;2022-09-03T12:57:22;30.50;62.80
52381;DHT22;38310;52.796;6.942;2022-09-03T12:59:52;30.90;63.10
52381;DHT22;38310;52.796;6.942;2022-09-03T13:02:25;31.30;63.70
52381;DHT22;38310;52.796;6.942;2022-09-03T13:04:52;31.90;62.80
52381;DHT22;38310;52.796;6.942;2022-09-03T13:07:33;31.90;62.30
52381;DHT22;38310;52.796;6.942;2022-09-03T13:10:06;31.70;60.70
52381;DHT22;38310;52.796;6.942;2022-09-03T13:12:46;31.40;60.80
52381;DHT22;38310;52.796;6.942;2022-09-03T13:15:21;32.10;62.50
52381;DHT22;38310;52.796;6.942;2022-09-03T13:23:25;32.00;61.90
52381;DHT22;38310;52.796;6.942;2022-09-03T13:26:41;32.10;61.30
52381;DHT22;38310;52.796;6.942;2022-09-03T13:32:06;32.20;62.50
52381;DHT22;38310;52.796;6.942;2022-09-03T13:34:42;31.60;59.80
52381;DHT22;38310;52.796;6.942;2022-09-03T13:37:29;32.10;60.90
52381;DHT22;38310;52.796;6.942;2022-09-03T13:40:35;31.60;59.90
52381;DHT22;38310;52.796;6.942;2022-09-03T13:43:17;31.90;61.20
52381;DHT22;38310;52.796;6.942;2022-09-03T13:46:06;31.40;61.00
52381;DHT22;38310;52.796;6.942;2022-09-03T13:48:43;31.90;61.30
52381;DHT22;38310;52.796;6.942;2022-09-03T13:51:42;32.40;60.50
52381;DHT22;38310;52.796;6.942;2022-09-03T13:54:28;32.30;60.10
52381;DHT22;38310;52.796;6.942;2022-09-03T13:57:06;32.50;61.30
52381;DHT22;38310;52.796;6.942;2022-09-03T14:04:57;31.40;61.70
52381;DHT22;38310;52.796;6.942;2022-09-03T14:07:43;31.90;61.10
52381;DHT22;38310;52.796;6.942;2022-09-03T14:13:17;31.90;60.10
52381;DHT22;38310;52.796;6.942;2022-09-03T14:18:38;31.70;61.60
52381;DHT22;38310;52.796;6.942;2022-09-03T14:21:09;31.50;60.80
52381;DHT22;38310;52.796;6.942;2022-09-03T14:26:34;30.80;61.20
52381;DHT22;38310;52.796;6.942;2022-09-03T14:42:27;30.10;61.60
52381;DHT22;38310;52.796;6.942;2022-09-03T15:02:41;29.20;62.90
52381;DHT22;38310;52.796;6.942;2022-09-03T15:05:15;29.00;62.60
52381;DHT22;38310;52.796;6.942;2022-09-03T15:07:52;28.70;62.90
52381;DHT22;38310;52.796;6.942;2022-09-03T15:19:17;28.10;64.40
52381;DHT22;38310;52.796;6.942;2022-09-03T15:24:49;27.90;64.60
52381;DHT22;38310;52.796;6.942;2022-09-03T15:30:17;27.80;65.00
52381;DHT22;38310;52.796;6.942;2022-09-03T15:33:29;27.80;65.40
52381;DHT22;38310;52.796;6.942;2022-09-03T15:36:23;27.80;64.90
52381;DHT22;38310;52.796;6.942;2022-09-03T15:38:59;27.60;65.30
52381;DHT22;38310;52.796;6.942;2022-09-03T15:44:11;27.40;65.50
52381;DHT22;38310;52.796;6.942;2022-09-03T15:46:55;27.40;65.30
52381;DHT22;38310;52.796;6.942;2022-09-03T15:49:54;27.30;65.50
52381;DHT22;38310;52.796;6.942;2022-09-03T15:52:35;27.20;66.20
52381;DHT22;38310;52.796;6.942;2022-09-03T15:55:13;27.20;66.30
52381;DHT22;38310;52.796;6.942;2022-09-03T15:57:53;27.10;66.30
52381;DHT22;38310;52.796;6.942;2022-09-03T16:00:31;27.00;66.80
52381;DHT22;38310;52.796;6.942;2022-09-03T16:03:10;26.90;66.60
52381;DHT22;38310;52.796;6.942;2022-09-03T16:06:02;26.90;66.70
52381;DHT22;38310;52.796;6.942;2022-09-03T16:17:04;26.60;66.60
52381;DHT22;38310;52.796;6.942;2022-09-03T16:19:47;26.40;66.80
52381;DHT22;38310;52.796;6.942;2022-09-03T16:22:48;26.30;67.50
52381;DHT22;38310;52.796;6.942;2022-09-03T16:25:22;26.30;68.10
52381;DHT22;38310;52.796;6.942;2022-09-03T16:28:12;26.10;68.20
52381;DHT22;38310;52.796;6.942;2022-09-03T16:33:32;26.00;67.80
52381;DHT22;38310;52.796;6.942;2022-09-03T16:41:51;25.90;69.30
52381;DHT22;38310;52.796;6.942;2022-09-03T16:44:34;25.80;68.90
52381;DHT22;38310;52.796;6.942;2022-09-03T16:47:25;25.70;68.70
52381;DHT22;38310;52.796;6.942;2022-09-03T17:06:48;25.20;70.00
52381;DHT22;38310;52.796;6.942;2022-09-03T17:12:43;25.20;70.70
52381;DHT22;38310;52.796;6.942;2022-09-03T17:21:19;25.00;71.90
52381;DHT22;38310;52.796;6.942;2022-09-03T17:27:10;24.90;72.50
52381;DHT22;38310;52.796;6.942;2022-09-03T17:57:09;23.80;74.40
52381;DHT22;38310;52.796;6.942;2022-09-03T18:05:04;23.50;75.10
52381;DHT22;38310;52.796;6.942;2022-09-03T18:10:40;23.20;76.60
52381;DHT22;38310;52.796;6.942;2022-09-03T18:18:31;22.80;77.10
52381;DHT22;38310;52.796;6.942;2022-09-03T18:21:04;22.70;76.50
52381;DHT22;38310;52.796;6.942;2022-09-03T18:24:04;22.60;76.90
52381;DHT22;38310;52.796;6.942;2022-09-03T18:26:56;22.50;77.50
52381;DHT22;38310;52.796;6.942;2022-09-03T18:29:46;22.30;78.60
52381;DHT22;38310;52.796;6.942;2022-09-03T18:32:31;22.20;78.60
52381;DHT22;38310;52.796;6.942;2022-09-03T18:35:15;22.10;78.60
52381;DHT22;38310;52.796;6.942;2022-09-03T18:38:02;22.00;79.20
52381;DHT22;38310;52.796;6.942;2022-09-03T18:40:55;21.80;79.30
52381;DHT22;38310;52.796;6.942;2022-09-03T18:47:21;21.60;79.90
52381;DHT22;38310;52.796;6.942;2022-09-03T18:53:10;21.40;80.20
52381;DHT22;38310;52.796;6.942;2022-09-03T18:56:24;21.40;80.00
52381;DHT22;38310;52.796;6.942;2022-09-03T19:06:15;21.20;79.20
52381;DHT22;38310;52.796;6.942;2022-09-03T19:12:11;21.10;78.60
52381;DHT22;38310;52.796;6.942;2022-09-03T19:15:58;21.10;78.70
52381;DHT22;38310;52.796;6.942;2022-09-03T19:21:30;21.00;78.40
52381;DHT22;38310;52.796;6.942;2022-09-03T19:24:20;21.00;78.50
52381;DHT22;38310;52.796;6.942;2022-09-03T19:33:29;20.80;79.60
52381;DHT22;38310;52.796;6.942;2022-09-03T19:39:30;20.60;79.50
52381;DHT22;38310;52.796;6.942;2022-09-03T19:45:25;20.50;80.80
52381;DHT22;38310;52.796;6.942;2022-09-03T19:48:19;20.40;80.40
52381;DHT22;38310;52.796;6.942;2022-09-03T19:53:58;20.20;80.70
52381;DHT22;38310;52.796;6.942;2022-09-03T19:56:44;20.10;81.40
52381;DHT22;38310;52.796;6.942;2022-09-03T19:59:35;20.00;80.80
52381;DHT22;38310;52.796;6.942;2022-09-03T20:02:23;20.00;80.10
52381;DHT22;38310;52.796;6.942;2022-09-03T20:05:11;19.90;80.10
52381;DHT22;38310;52.796;6.942;2022-09-03T20:07:57;19.90;80.30
52381;DHT22;38310;52.796;6.942;2022-09-03T20:10:43;19.90;80.00
52381;DHT22;38310;52.796;6.942;2022-09-03T20:13:13;19.80;79.80
52381;DHT22;38310;52.796;6.942;2022-09-03T20:18:23;19.80;79.50
52381;DHT22;38310;52.796;6.942;2022-09-03T20:21:31;19.80;79.50
52381;DHT22;38310;52.796;6.942;2022-09-03T20:24:14;19.80;79.00
52381;DHT22;38310;52.796;6.942;2022-09-03T20:32:10;19.70;79.20
52381;DHT22;38310;52.796;6.942;2022-09-03T20:34:57;19.70;79.30
52381;DHT22;38310;52.796;6.942;2022-09-03T20:38:08;19.60;79.60
52381;DHT22;38310;52.796;6.942;2022-09-03T20:52:19;19.40;79.00
52381;DHT22;38310;52.796;6.942;2022-09-03T21:00:21;19.30;78.50
52381;DHT22;38310;52.796;6.942;2022-09-03T21:03:24;19.30;79.00
52381;DHT22;38310;52.796;6.942;2022-09-03T21:08:55;19.20;78.90
52381;DHT22;38310;52.796;6.942;2022-09-03T21:22:38;19.00;78.90
52381;DHT22;38310;52.796;6.942;2022-09-03T21:25:24;19.00;78.80
52381;DHT22;38310;52.796;6.942;2022-09-03T21:28:02;18.90;78.90
52381;DHT22;38310;52.796;6.942;2022-09-03T21:30:32;18.90;78.90
52381;DHT22;38310;52.796;6.942;2022-09-03T21:33:09;18.90;79.00
52381;DHT22;38310;52.796;6.942;2022-09-03T21:38:18;18.90;79.10
52381;DHT22;38310;52.796;6.942;2022-09-03T21:40:59;18.80;78.80
52381;DHT22;38310;52.796;6.942;2022-09-03T21:43:46;18.80;79.50
52381;DHT22;38310;52.796;6.942;2022-09-03T21:46:16;18.80;79.60
52381;DHT22;38310;52.796;6.942;2022-09-03T21:48:51;18.80;79.30
52381;DHT22;38310;52.796;6.942;2022-09-03T21:51:29;18.70;79.70
52381;DHT22;38310;52.796;6.942;2022-09-03T21:54:09;18.70;79.70
52381;DHT22;38310;52.796;6.942;2022-09-03T22:02:38;18.60;79.50
52381;DHT22;38310;52.796;6.942;2022-09-03T22:05:04;18.50;79.40
52381;DHT22;38310;52.796;6.942;2022-09-03T22:10:58;18.50;80.00
52381;DHT22;38310;52.796;6.942;2022-09-03T22:13:31;18.50;80.00
52381;DHT22;38310;52.796;6.942;2022-09-03T22:16:28;18.40;79.50
52381;DHT22;38310;52.796;6.942;2022-09-03T22:18:56;18.30;80.40
52381;DHT22;38310;52.796;6.942;2022-09-03T22:21:27;18.30;80.30
52381;DHT22;38310;52.796;6.942;2022-09-03T22:29:43;18.10;81.00
52381;DHT22;38310;52.796;6.942;2022-09-03T22:32:26;18.10;81.40
52381;DHT22;38310;52.796;6.942;2022-09-03T22:43:42;17.80;82.50
52381;DHT22;38310;52.796;6.942;2022-09-03T22:46:21;17.80;82.00
52381;DHT22;38310;52.796;6.942;2022-09-03T22:49:16;17.70;82.10
52381;DHT22;38310;52.796;6.942;2022-09-03T22:52:00;17.70;82.60
52381;DHT22;38310;52.796;6.942;2022-09-03T22:54:48;17.60;82.30
52381;DHT22;38310;52.796;6.942;2022-09-03T22:57:18;17.60;83.00
52381;DHT22;38310;52.796;6.942;2022-09-03T23:00:05;17.60;82.40
52381;DHT22;38310;52.796;6.942;2022-09-03T23:02:32;17.60;82.80
52381;DHT22;38310;52.796;6.942;2022-09-03T23:05:22;17.50;82.40
52381;DHT22;38310;52.796;6.942;2022-09-03T23:08:02;17.50;82.80
52381;DHT22;38310;52.796;6.942;2022-09-03T23:13:09;17.40;82.80
52381;DHT22;38310;52.796;6.942;2022-09-03T23:15:37;17.40;82.60
52381;DHT22;38310;52.796;6.942;2022-09-03T23:18:13;17.30;82.70
52381;DHT22;38310;52.796;6.942;2022-09-03T23:20:46;17.30;82.60